Terminal Aerodrome Forecast
Issued by NWS

Home | Current Version | Previous Version | Text Only | Print | Product List | Glossary On
Versions: 1 2 3 4 5 6 7 8 9 10 11 12 13 14 15 16 17 18 19 20 21 22 23 24
000
FTUS46 KSEW 210256 AAA
TAFPAE
TAF AMD
KPAE 210256Z 2103/2124 13017G25KT P6SM VCSH SCT070 BKN080 OVC090
     FM210400 14020G30KT P6SM VCSH SCT030 OVC045
     FM211300 14022G33KT P6SM -RA SCT020 OVC030
     FM211500 15022G34KT 4SM -RA BR SCT012 BKN020 OVC030
     FM211900 18016G25KT P6SM VCSH SCT018 BKN020 BKN060=

USA.gov is the U.S. government's official web portal to all federal, state and local government web resources and services.